Charlevoix, MI

11:03 PM EST on December 28, 2014 (GMT -0500)
Antrim County | Change Station
CLOSE
Current Station
Airport
Location: Bellaire,
Elevation: 623 ft
Nearby Weather Stations

Elev 623 ft 44.99 °N, 85.20 °W | Updated 8 minutes ago

Overcast
Overcast
24 °F
Feels Like 17 °F
N
6
Wind Variable Wind from NW
Gusts 17 mph

Today
High -- | Low -- °F
--% Chance of Precip.
Yesterday
High -- | Low -- °F
Precip. -- in
8:19 AM 5:05 PM
First Quarter, 54% visible
Pressure 30.21 in
Visibility 10.0 miles
Clouds Mostly Cloudy 3300 ft
Overcast 3800 ft
Windchill 17 °F
Dew Point 14 °F
Humidity 66%
Rainfall 0.00 in
Snow Depth Not available.
UV 0 out of 12
Pollen .10 out of 12
Air Quality Not available.
Flu Activity Not available.
METAR KACB 290355Z AUTO 32005G15KT 10SM BKN033 OVC038 M04/M10 A3021 RMK AO2 T10431098

More Conditions Fewer Conditions

Pressure 30.21 in
Visibility 10.0 miles
Clouds Mostly Cloudy 3300 ft
Overcast 3800 ft
Windchill 17 °F
Dew Point 14 °F
Humidity 66%
Rainfall 0.00 in
Snow Depth Not available.
UV 0 out of 12
Pollen .10 out of 12
Air Quality Not available.
Flu Activity Not available.
METAR KACB 290355Z AUTO 32005G15KT 10SM BKN033 OVC038 M04/M10 A3021 RMK AO2 T10431098

More Conditions Fewer Conditions

Nowcast | as of 11:00 PM EST on December 28, 2014

At 12 am...numerous snow showers. Temperature 22. Northwest winds 11 mph. At 2 am...mostly cloudy. Scattered snow showers. Temperature 21. Northwest winds 10 mph. At 4 am...mostly cloudy. Scattered snow showers. Temperature 19. Northwest winds 9 mph. At 6 am...mostly cloudy. Scattered snow showers. Temperature 18. Northwest winds 8 mph.

×

10-Day Weather Forecast

Almanac

Astronomy

Dec. 28, 2014 Rise Set
Actual Time
Civil Twilight
Nautical Twilight
Astronomical Twilight
Moon
Length of Visible Light
Length of Day
Tomorrow will be .
, % of the Moon is Illuminated

Today's Extremes

State Highs State Lows

Community

WunderPhotos

Upload Photos

1,781,528 photos uploaded!

WunderBlogs® & News

Nearby

Air Quality

  Air Quality AQ Index Pollutant
Not available.

Snow Depth

Station Depth Elevation

Earthquake Activity

City Distance Mag. Time & Date
Minimum magnitude displayed is 2.5.

Coastal Water Temperatures

Place Temperature

Nearby Weather Stations